createdAt,value
2022-09-23T01:36:53.195Z,100790.80
2022-09-23T01:39:35.026Z,100786.20
2022-09-23T01:42:13.271Z,100780.60
2022-09-23T01:44:51.481Z,100776.20
2022-09-23T01:47:28.815Z,100778.40
2022-09-23T01:50:25.509Z,100779.60
2022-09-23T01:53:01.487Z,100776.60
2022-09-23T01:55:36.339Z,100779.00
2022-09-23T01:58:14.381Z,100775.80
2022-09-23T02:00:55.566Z,100776.00
2022-09-23T02:03:31.735Z,100779.40
2022-09-23T02:06:10.515Z,100772.20
2022-09-23T02:08:49.038Z,100773.40
2022-09-23T02:11:19.552Z,100774.80
2022-09-23T02:14:02.684Z,100777.00
2022-09-23T02:16:39.790Z,100776.40
2022-09-23T02:19:23.773Z,100770.80
2022-09-23T02:22:01.785Z,100771.00
2022-09-23T02:24:37.202Z,100774.80
2022-09-23T02:27:19.981Z,100774.60
2022-09-23T02:29:56.962Z,100773.60
2022-09-23T02:32:37.997Z,100774.20
2022-09-23T02:35:18.236Z,100771.20
2022-09-23T02:38:00.098Z,100770.00
2022-09-23T02:40:38.159Z,100767.20
2022-09-23T02:43:19.370Z,100765.60
2022-09-23T02:45:49.750Z,100770.00
2022-09-23T02:48:24.593Z,100763.60
2022-09-23T02:50:55.100Z,100761.00
2022-09-23T02:53:25.543Z,100753.60
2022-09-23T02:55:54.678Z,100760.20
2022-09-23T02:58:23.961Z,100755.20
2022-09-23T03:01:07.492Z,100755.20
2022-09-23T03:03:53.575Z,100758.20
2022-09-23T03:06:32.053Z,100758.40
2022-09-23T03:09:17.342Z,100758.60
2022-09-23T03:11:58.623Z,100753.00
2022-09-23T03:14:39.292Z,100752.20
2022-09-23T03:17:19.801Z,100753.00
2022-09-23T03:19:55.711Z,100747.60
2022-09-23T03:22:32.151Z,100749.60
2022-09-23T03:25:11.899Z,100742.00
2022-09-23T03:27:43.298Z,100738.60
2022-09-23T03:30:14.286Z,100740.00
2022-09-23T03:32:47.195Z,100745.20
2022-09-23T03:35:15.832Z,100743.80
2022-09-23T03:37:55.587Z,100741.40
2022-09-23T03:40:31.729Z,100744.40
2022-09-23T03:43:02.751Z,100737.80
2022-09-23T03:45:35.917Z,100735.60
2022-09-23T03:48:06.752Z,100735.00
2022-09-23T03:50:36.816Z,100730.60
2022-09-23T03:53:06.783Z,100729.60
2022-09-23T03:55:38.914Z,100725.40
2022-09-23T03:58:11.221Z,100728.00
2022-09-23T04:00:43.236Z,100724.40
2022-09-23T04:07:59.680Z,100724.00
2022-09-23T04:11:14.409Z,100723.20
2022-09-23T04:14:27.051Z,100720.20
2022-09-23T04:17:02.913Z,100719.20
2022-09-23T04:19:33.764Z,100721.80
2022-09-23T04:22:24.550Z,100715.40
2022-09-23T04:24:55.031Z,100719.80
2022-09-23T04:27:25.109Z,100723.00
2022-09-23T04:29:55.029Z,100728.00
2022-09-23T04:32:25.238Z,100718.40
2022-09-23T04:35:18.414Z,100717.40
2022-09-23T04:37:50.308Z,100727.20
2022-09-23T04:40:20.084Z,100725.00
2022-09-23T04:42:49.882Z,100724.40
2022-09-23T04:45:19.686Z,100726.00
2022-09-23T04:47:49.146Z,100730.40
2022-09-23T04:50:20.523Z,100729.40
2022-09-23T04:52:50.324Z,100726.80
2022-09-23T04:55:21.541Z,100726.20
2022-09-23T04:58:02.043Z,100726.60
2022-09-23T05:01:01.703Z,100732.20
2022-09-23T05:03:52.416Z,100724.40
2022-09-23T05:41:18.644Z,100741.20
2022-09-23T05:43:53.268Z,100742.60
2022-09-23T05:46:29.775Z,100740.00
2022-09-23T05:49:06.005Z,100739.40
2022-09-23T05:51:39.825Z,100742.40
2022-09-23T05:54:13.564Z,100747.00
2022-09-23T05:56:46.939Z,100743.60
2022-09-23T05:59:20.528Z,100744.80
2022-09-23T06:01:56.476Z,100741.80
2022-09-23T06:04:30.171Z,100741.40
2022-09-23T06:07:03.848Z,100735.60
2022-09-23T06:09:37.349Z,100737.80
2022-09-23T06:12:11.469Z,100734.40
2022-09-23T06:14:44.827Z,100733.20
2022-09-23T06:17:18.185Z,100734.60
2022-09-23T06:19:51.640Z,100735.80
2022-09-23T06:22:27.433Z,100740.20
2022-09-23T06:25:02.465Z,100743.40
2022-09-23T06:27:35.831Z,100744.40
2022-09-23T06:30:12.168Z,100744.00
2022-09-23T06:32:52.109Z,100740.80
2022-09-23T06:35:29.850Z,100743.80
2022-09-23T06:38:05.920Z,100742.80
2022-09-23T06:43:32.592Z,100745.00
2022-09-23T06:46:10.236Z,100749.20
2022-09-23T06:48:46.356Z,100750.00
2022-09-23T06:51:20.494Z,100747.40
2022-09-23T06:53:53.970Z,100753.60
2022-09-23T06:56:27.307Z,100751.80
2022-09-23T06:59:00.557Z,100752.00
2022-09-23T07:01:34.609Z,100753.60
2022-09-23T07:04:13.623Z,100753.60
2022-09-23T07:06:46.918Z,100755.60
2022-09-23T07:09:21.399Z,100751.80
2022-09-23T07:11:54.601Z,100750.40
2022-09-23T07:14:28.091Z,100752.20
2022-09-23T07:17:04.000Z,100752.80
2022-09-23T07:19:37.748Z,100754.00
2022-09-23T07:22:13.665Z,100752.00
2022-09-23T07:24:47.384Z,100752.20
2022-09-23T07:27:20.770Z,100751.80
2022-09-23T07:29:55.419Z,100753.40
2022-09-23T07:32:38.482Z,100747.00
2022-09-23T07:35:19.169Z,100757.40
2022-09-23T07:37:55.679Z,100758.40
2022-09-23T07:40:29.319Z,100752.00
2022-09-23T07:43:04.765Z,100750.80
2022-09-23T07:45:43.922Z,100753.20
2022-09-23T07:48:17.353Z,100746.60
2022-09-23T07:50:51.989Z,100748.60
2022-09-23T07:53:25.416Z,100752.40
2022-09-23T07:55:59.767Z,100753.80
2022-09-23T07:58:36.023Z,100752.40
2022-09-23T08:01:13.790Z,100749.80
2022-09-23T08:03:49.620Z,100745.00
2022-09-23T08:06:23.765Z,100740.60
2022-09-23T08:09:00.378Z,100734.00
2022-09-23T08:11:34.057Z,100737.40
2022-09-23T08:14:08.865Z,100730.00
2022-09-23T08:16:45.271Z,100732.20
2022-09-23T08:19:19.376Z,100729.20
2022-09-23T08:21:54.657Z,100721.00
2022-09-23T08:24:30.370Z,100719.40
2022-09-23T08:27:04.845Z,100718.60
2022-09-23T08:29:38.237Z,100716.80
2022-09-23T08:32:11.638Z,100720.00
2022-09-23T08:34:45.678Z,100721.60
2022-09-23T08:37:19.122Z,100715.20
2022-09-23T08:39:52.472Z,100716.60
2022-09-23T08:42:36.868Z,100721.00
2022-09-23T08:45:18.311Z,100723.60
2022-09-23T08:48:01.958Z,100717.80
2022-09-23T08:50:43.588Z,100722.40
2022-09-23T08:53:26.559Z,100720.60
2022-09-23T08:56:04.776Z,100724.00
2022-09-23T08:58:57.237Z,100721.00
2022-09-23T09:01:41.229Z,100716.60
2022-09-23T09:04:27.862Z,100717.80
2022-09-23T09:10:19.962Z,100714.20
2022-09-23T09:13:01.830Z,100714.00
2022-09-23T09:15:43.651Z,100715.80
2022-09-23T09:18:21.436Z,100712.00
2022-09-23T09:21:05.412Z,100714.40
2022-09-23T09:23:49.741Z,100714.80
2022-09-23T09:26:29.777Z,100712.20
2022-09-23T09:29:33.776Z,100706.20
2022-09-23T09:32:26.831Z,100712.60
2022-09-23T09:35:09.131Z,100707.60
2022-09-23T09:37:48.875Z,100704.80
2022-09-23T09:40:22.219Z,100706.60
2022-09-23T09:42:55.590Z,100707.80
2022-09-23T09:45:57.765Z,100706.60
2022-09-23T09:48:41.039Z,100706.00
2022-09-23T09:51:32.098Z,100704.20
2022-09-23T10:38:25.426Z,100663.40
2022-09-23T10:41:32.634Z,100657.60
2022-09-23T10:44:41.933Z,100659.80
2022-09-23T10:48:14.932Z,100656.00
2022-09-23T10:50:53.883Z,100653.60
2022-09-23T10:53:54.120Z,100651.20
2022-09-23T10:56:41.774Z,100645.00
2022-09-23T11:03:03.036Z,100640.80
2022-09-23T11:05:57.043Z,100640.80
2022-09-23T11:09:13.259Z,100636.80
2022-09-23T11:12:06.806Z,100636.80
2022-09-23T11:15:07.702Z,100637.20
2022-09-23T11:18:17.810Z,100634.40
2022-09-23T11:21:06.603Z,100629.20
2022-09-23T11:24:07.028Z,100621.80
2022-09-23T11:26:58.507Z,100619.00
2022-09-23T11:30:08.214Z,100614.80
2022-09-23T11:33:22.208Z,100606.80
2022-09-23T11:36:02.215Z,100606.00
2022-09-23T11:38:44.352Z,100595.00
2022-09-23T11:41:28.092Z,100592.60
2022-09-23T11:44:21.154Z,100593.20
2022-09-23T11:47:04.016Z,100588.80
2022-09-23T11:49:54.186Z,100581.80
2022-09-23T11:52:36.295Z,100573.20
2022-09-23T11:55:22.624Z,100571.60
2022-09-23T11:58:05.715Z,100578.40
2022-09-23T12:00:56.855Z,100574.00
2022-09-23T12:03:49.529Z,100580.60
2022-09-23T12:06:31.144Z,100579.20
2022-09-23T12:09:24.112Z,100463.60
2022-09-23T12:12:32.113Z,100459.80
2022-09-23T12:15:24.182Z,100474.40
2022-09-23T12:18:30.490Z,100488.60
2022-09-23T12:21:49.816Z,100496.40
2022-09-23T12:25:00.830Z,100501.40
2022-09-23T12:27:44.908Z,100510.20
2022-09-23T12:30:21.750Z,100516.40
2022-09-23T12:33:09.163Z,100516.80
2022-09-23T12:35:48.776Z,100526.00
2022-09-23T12:38:39.195Z,100573.60
2022-09-23T12:41:33.291Z,100561.80
2022-09-23T12:44:36.892Z,100517.20
2022-09-23T12:47:40.935Z,100516.00
2022-09-23T12:50:58.696Z,100522.60
2022-09-23T12:54:15.924Z,100518.40
2022-09-23T12:57:06.029Z,100562.40
2022-09-23T13:44:57.562Z,100466.60
2022-09-23T13:47:35.819Z,100463.80
2022-09-23T13:50:19.279Z,100465.00
2022-09-23T13:52:58.064Z,100465.20
2022-09-23T13:55:37.504Z,100463.00
2022-09-23T13:58:22.502Z,100461.60
2022-09-23T14:00:56.253Z,100497.40
2022-09-23T14:03:36.540Z,100470.60
2022-09-23T14:06:16.526Z,100486.80
2022-09-23T14:08:52.367Z,100470.00
2022-09-23T14:11:33.262Z,100448.00
2022-09-23T14:14:08.152Z,100452.80
2022-09-23T14:16:44.438Z,100453.80
2022-09-23T14:19:24.073Z,100451.20
2022-09-23T14:21:59.451Z,100474.80
2022-09-23T14:24:38.517Z,100479.20
2022-09-23T14:27:19.535Z,100487.20
2022-09-23T14:29:53.423Z,100451.00
2022-09-23T14:32:30.033Z,100458.40
2022-09-23T14:35:27.051Z,100485.20
2022-09-23T14:38:31.659Z,100471.40
2022-09-23T14:41:17.503Z,100443.40
2022-09-23T14:44:01.393Z,100441.20
2022-09-23T14:46:38.129Z,100464.20
2022-09-23T14:49:19.408Z,100456.60
2022-09-23T14:51:58.770Z,100433.40
2022-09-23T14:54:46.267Z,100429.80
2022-09-23T14:57:31.943Z,100434.80
2022-09-23T15:00:17.972Z,100429.00
2022-09-23T15:03:04.442Z,100424.40
2022-09-23T15:05:46.280Z,100423.00
2022-09-23T15:08:23.979Z,100430.60
2022-09-23T15:10:58.615Z,100439.60
2022-09-23T15:13:34.725Z,100435.60
2022-09-23T15:16:08.870Z,100439.00
2022-09-23T15:18:46.102Z,100432.60
2022-09-23T15:21:23.310Z,100435.80
2022-09-23T15:23:58.719Z,100429.40
2022-09-23T15:26:52.632Z,100433.40
2022-09-23T15:29:27.102Z,100436.20
2022-09-23T15:32:01.352Z,100431.20
2022-09-23T15:34:34.846Z,100427.20
2022-09-23T15:37:11.205Z,100424.00
2022-09-23T15:39:44.665Z,100422.60
2022-09-23T15:42:25.793Z,100421.80
2022-09-23T15:45:01.048Z,100422.80
2022-09-23T15:47:37.068Z,100418.20
2022-09-23T15:50:14.998Z,100415.40
2022-09-23T15:52:48.593Z,100415.00
2022-09-23T15:55:22.995Z,100414.40
2022-09-23T15:57:58.592Z,100415.20
2022-09-23T16:00:31.984Z,100418.40
2022-09-23T16:03:06.786Z,100411.60
2022-09-23T16:05:44.688Z,100416.80
2022-09-23T16:08:19.947Z,100416.00
2022-09-23T16:10:55.019Z,100411.60
2022-09-23T16:13:29.454Z,100411.00
2022-09-23T16:16:02.960Z,100411.20
2022-09-23T16:18:39.277Z,100415.20
2022-09-23T16:21:16.698Z,100408.00
2022-09-23T16:23:54.974Z,100407.20
2022-09-23T16:26:32.640Z,100410.20
2022-09-23T16:29:06.192Z,100414.60
2022-09-23T16:31:39.811Z,100411.00
2022-09-23T16:34:13.744Z,100411.40
2022-09-23T16:36:47.807Z,100414.40
2022-09-23T16:39:22.916Z,100416.80
2022-09-23T16:41:56.591Z,100421.40
2022-09-23T16:44:31.904Z,100414.40
2022-09-23T16:47:05.736Z,100418.60
2022-09-23T16:49:39.035Z,100416.40
2022-09-23T16:52:17.042Z,100411.80
2022-09-23T16:54:52.492Z,100412.20
2022-09-23T16:57:25.757Z,100410.40
2022-09-23T17:00:17.024Z,100408.00
2022-09-23T17:03:07.793Z,100405.20
2022-09-23T17:05:42.958Z,100402.20
2022-09-23T17:08:20.389Z,100403.80
2022-09-23T17:11:01.064Z,100400.40
2022-09-23T17:13:34.815Z,100400.60
2022-09-23T17:16:08.867Z,100400.20
2022-09-23T17:18:43.542Z,100397.60
2022-09-23T17:21:17.002Z,100401.60
2022-09-23T17:23:50.213Z,100398.80
2022-09-23T17:26:50.677Z,100396.00
2022-09-23T17:29:27.020Z,100392.40
2022-09-23T17:32:00.299Z,100389.00
2022-09-23T17:34:33.698Z,100389.40
2022-09-23T17:37:07.000Z,100392.60
2022-09-23T17:39:41.696Z,100389.20
2022-09-23T17:42:15.800Z,100387.40
2022-09-23T17:44:51.488Z,100386.40
2022-09-23T17:47:25.069Z,100388.80
2022-09-23T17:49:58.792Z,100384.20
2022-09-23T17:52:33.275Z,100384.80
2022-09-23T17:55:08.787Z,100385.20
2022-09-23T17:57:44.942Z,100390.80
2022-09-23T18:00:19.270Z,100389.80
2022-09-23T18:03:03.716Z,100394.60
2022-09-23T18:06:06.725Z,100390.60
2022-09-23T18:08:42.656Z,100390.00
2022-09-23T18:11:25.833Z,100385.20
2022-09-23T18:14:02.926Z,100386.20
2022-09-23T18:16:42.099Z,100389.20
2022-09-23T18:19:20.112Z,100387.00
2022-09-23T18:22:14.909Z,100388.60
2022-09-23T18:24:49.968Z,100391.60
2022-09-23T18:27:26.108Z,100391.60
2022-09-23T18:30:01.281Z,100393.60
2022-09-23T18:32:35.427Z,100386.80
2022-09-23T18:35:10.772Z,100385.20
2022-09-23T18:38:00.972Z,100383.80
2022-09-23T18:40:56.834Z,100378.60
2022-09-23T18:43:39.334Z,100384.80
2022-09-23T18:46:21.896Z,100381.40
2022-09-23T18:49:28.879Z,100381.20
2022-09-23T18:55:45.333Z,100383.40
2022-09-23T18:58:18.573Z,100381.20
2022-09-23T19:00:53.236Z,100379.00
2022-09-23T19:03:27.177Z,100378.80
2022-09-23T19:06:08.873Z,100381.20
2022-09-23T19:08:43.240Z,100380.60
2022-09-23T19:11:25.653Z,100376.20
2022-09-23T19:14:02.144Z,100375.40
2022-09-23T19:16:38.653Z,100371.80
2022-09-23T19:19:12.831Z,100367.60
2022-09-23T19:21:47.084Z,100366.80
2022-09-23T19:24:33.797Z,100361.00
2022-09-23T19:27:10.020Z,100360.40
2022-09-23T19:29:43.283Z,100359.20
2022-09-23T19:32:17.005Z,100359.40
2022-09-23T19:34:59.852Z,100356.20
2022-09-23T19:37:32.992Z,100350.60
2022-09-23T19:40:07.973Z,100356.80
2022-09-23T19:42:41.464Z,100354.60
2022-09-23T19:45:17.719Z,100353.20
2022-09-23T19:48:00.668Z,100350.80
2022-09-23T19:50:36.669Z,100354.60
2022-09-23T19:53:10.590Z,100354.80
2022-09-23T19:55:45.274Z,100353.80
2022-09-23T19:58:18.772Z,100362.40
2022-09-23T20:00:52.592Z,100360.40
2022-09-23T20:03:27.159Z,100360.20
2022-09-23T20:06:00.736Z,100354.20
2022-09-23T20:08:41.316Z,100357.80
2022-09-23T20:11:27.499Z,100356.60
2022-09-23T20:14:06.139Z,100354.40
2022-09-23T20:16:42.881Z,100352.80
2022-09-23T20:19:16.926Z,100349.60
2022-09-23T20:22:11.149Z,100347.80
2022-09-23T20:24:49.502Z,100344.20
2022-09-23T20:27:26.479Z,100348.60
2022-09-23T20:30:14.126Z,100347.00
2022-09-23T20:32:48.795Z,100345.40
2022-09-23T20:35:22.492Z,100342.60
2022-09-23T20:37:56.736Z,100343.00
2022-09-23T20:40:31.664Z,100342.80
2022-09-23T20:43:05.226Z,100339.60
2022-09-23T20:45:38.420Z,100335.20
2022-09-23T20:48:11.739Z,100334.80
2022-09-23T20:50:46.813Z,100332.80
2022-09-23T20:53:22.393Z,100335.00
2022-09-23T20:56:00.297Z,100333.40
2022-09-23T20:58:36.861Z,100326.80
2022-09-23T21:01:12.382Z,100327.00
2022-09-23T21:03:48.304Z,100327.20
2022-09-23T21:06:25.215Z,100325.20
2022-09-23T21:08:59.406Z,100321.80
2022-09-23T21:11:32.904Z,100321.80
2022-09-23T21:14:07.123Z,100321.20
2022-09-23T21:16:41.618Z,100328.00
2022-09-23T21:19:15.012Z,100324.20
2022-09-23T21:21:48.258Z,100335.00
2022-09-23T21:27:14.681Z,100325.40
2022-09-23T21:29:48.105Z,100326.80
2022-09-23T21:32:21.604Z,100326.80
2022-09-23T21:34:55.008Z,100328.20
2022-09-23T21:37:28.599Z,100334.00
2022-09-23T21:40:20.197Z,100329.00
2022-09-23T21:42:53.670Z,100332.20
2022-09-23T21:45:31.900Z,100333.80
2022-09-23T21:48:07.013Z,100330.40
2022-09-23T21:50:41.383Z,100339.40
2022-09-23T21:56:42.873Z,100334.20
2022-09-23T21:59:34.570Z,100328.20
2022-09-23T22:05:11.151Z,100315.60
2022-09-23T23:51:43.579Z,100269.40
2022-09-23T23:54:17.546Z,100267.80
2022-09-23T23:56:52.116Z,100262.60
2022-09-23T23:59:28.386Z,100259.20
